createdAt,value
2018-05-12T00:00:24.387Z,0
2018-05-12T00:01:34.130Z,0
2018-05-12T00:02:43.603Z,0
2018-05-12T00:03:53.608Z,0
2018-05-12T00:05:03.361Z,0
2018-05-12T00:06:13.112Z,0
2018-05-12T00:07:23.128Z,0
2018-05-12T00:08:33.139Z,0
2018-05-12T00:09:42.888Z,0
2018-05-12T00:10:52.379Z,0
2018-05-12T00:12:02.401Z,0
2018-05-12T00:13:12.139Z,0
2018-05-12T00:14:22.156Z,0
2018-05-12T00:15:32.175Z,0
2018-05-12T00:16:41.918Z,0
2018-05-12T00:17:51.940Z,0
2018-05-12T00:19:01.956Z,0
2018-05-12T00:20:11.433Z,0
2018-05-12T00:21:21.448Z,0
2018-05-12T00:22:31.192Z,0
2018-05-12T00:23:40.934Z,0
2018-05-12T00:24:50.961Z,0
2018-05-12T00:26:00.973Z,0
2018-05-12T00:27:10.987Z,0
2018-05-12T00:28:20.467Z,0
2018-05-12T00:29:29.947Z,0
2018-05-12T00:30:39.156Z,0
2018-05-12T00:31:49.173Z,0
2018-05-12T00:32:59.190Z,0
2018-05-12T00:34:09.203Z,0
2018-05-12T00:35:18.943Z,0
2018-05-12T00:36:28.689Z,0
2018-05-12T00:37:38.792Z,0
2018-05-12T00:38:48.533Z,0
2018-05-12T00:39:58.543Z,0
2018-05-12T00:41:08.551Z,0
2018-05-12T00:42:18.028Z,0
2018-05-12T00:43:27.263Z,0
2018-05-12T00:44:37.004Z,0
2018-05-12T00:45:47.013Z,0
2018-05-12T00:46:57.022Z,0
2018-05-12T00:48:06.498Z,0
2018-05-12T00:49:16.518Z,0
2018-05-12T00:50:26.525Z,0
2018-05-12T00:51:36.531Z,0
2018-05-12T00:52:46.282Z,0
2018-05-12T00:53:56.308Z,0
2018-05-12T00:55:06.394Z,0
2018-05-12T00:56:15.601Z,0
2018-05-12T00:57:25.615Z,0
2018-05-12T00:58:35.365Z,0
2018-05-12T00:59:45.107Z,0
2018-05-12T01:00:54.845Z,0
2018-05-12T01:02:04.591Z,0
2018-05-12T01:03:14.344Z,0
2018-05-12T01:04:24.365Z,0
2018-05-12T01:05:34.386Z,0
2018-05-12T01:06:44.209Z,0
2018-05-12T01:07:53.693Z,0
2018-05-12T01:09:03.709Z,0
2018-05-12T01:10:13.715Z,0
2018-05-12T01:11:23.739Z,0
2018-05-12T01:12:33.755Z,0
2018-05-12T01:13:44.015Z,0
2018-05-12T01:14:54.032Z,0
2018-05-12T01:16:03.827Z,0
2018-05-12T01:17:13.839Z,0
2018-05-12T01:18:23.854Z,0
2018-05-12T01:19:33.333Z,0
2018-05-12T01:20:43.073Z,0
2018-05-12T01:21:53.090Z,0
2018-05-12T01:23:03.107Z,0
2018-05-12T01:24:13.135Z,0
2018-05-12T01:25:22.881Z,0
2018-05-12T01:26:32.892Z,0
2018-05-12T01:27:42.196Z,0
2018-05-12T01:28:52.207Z,0
2018-05-12T01:30:02.219Z,0
2018-05-12T01:31:11.964Z,0
2018-05-12T01:32:21.712Z,0
2018-05-12T01:33:31.455Z,0
2018-05-12T01:34:41.476Z,0
2018-05-12T01:35:51.561Z,0
2018-05-12T01:37:01.578Z,0
2018-05-12T01:38:11.123Z,0
2018-05-12T01:39:21.138Z,0
2018-05-12T01:40:31.150Z,0
2018-05-12T01:41:41.162Z,0
2018-05-12T01:42:51.180Z,0
2018-05-12T01:44:00.920Z,0
2018-05-12T01:45:10.670Z,0
2018-05-12T01:46:20.679Z,0
2018-05-12T01:47:30.703Z,0
2018-05-12T01:48:40.445Z,0
2018-05-12T01:49:50.455Z,0
2018-05-12T01:51:00.465Z,0
2018-05-12T01:52:09.676Z,0
2018-05-12T01:53:19.692Z,0
2018-05-12T01:54:29.708Z,0
2018-05-12T01:55:39.715Z,0
2018-05-12T01:56:49.733Z,0
2018-05-12T01:57:59.752Z,0
2018-05-12T01:59:09.227Z,0
2018-05-12T02:00:18.971Z,0
2018-05-12T02:01:28.984Z,0
2018-05-12T02:02:38.876Z,0
2018-05-12T02:03:48.885Z,0
2018-05-12T02:04:58.896Z,0
2018-05-12T02:06:08.908Z,0
2018-05-12T02:07:18.647Z,0
2018-05-12T02:08:28.386Z,0
2018-05-12T02:09:38.417Z,0
2018-05-12T02:10:48.157Z,0
2018-05-12T02:11:58.167Z,0
2018-05-12T02:13:08.172Z,0
2018-05-12T02:14:17.657Z,0
2018-05-12T02:15:27.402Z,0
2018-05-12T02:16:37.149Z,0
2018-05-12T02:17:46.623Z,0
2018-05-12T02:18:56.633Z,0
2018-05-12T02:20:06.709Z,0
2018-05-12T02:21:16.464Z,0
2018-05-12T02:22:26.206Z,0
2018-05-12T02:23:36.221Z,0
2018-05-12T02:24:45.698Z,0
2018-05-12T02:25:55.710Z,0
2018-05-12T02:27:05.726Z,0
2018-05-12T02:28:15.203Z,0
2018-05-12T02:29:24.949Z,0
2018-05-12T02:30:35.305Z,0
2018-05-12T02:31:45.331Z,0
2018-05-12T02:32:55.352Z,0
2018-05-12T02:34:05.187Z,0
2018-05-12T02:35:15.222Z,0
2018-05-12T02:36:24.697Z,0
2018-05-12T02:37:34.780Z,0
2018-05-12T02:38:44.520Z,0
2018-05-12T02:39:54.270Z,0
2018-05-12T02:41:03.749Z,0
2018-05-12T02:42:13.233Z,0
2018-05-12T02:43:23.253Z,0
2018-05-12T02:44:32.729Z,0
2018-05-12T02:45:42.222Z,5
2018-05-12T02:46:51.708Z,5
2018-05-12T02:48:01.724Z,5
2018-05-12T02:49:10.929Z,5
2018-05-12T02:50:20.680Z,5
2018-05-12T02:51:30.164Z,5
2018-05-12T02:52:40.184Z,5
2018-05-12T02:53:50.199Z,5
2018-05-12T02:54:59.954Z,5
2018-05-12T02:56:09.967Z,5
2018-05-12T02:57:19.984Z,5
2018-05-12T02:58:29.733Z,10
2018-05-12T02:59:39.745Z,10
2018-05-12T03:03:34.380Z,10
2018-05-12T03:04:44.407Z,10
2018-05-12T03:05:54.161Z,10
2018-05-12T03:07:03.715Z,10
2018-05-12T03:08:13.726Z,10
2018-05-12T03:09:23.314Z,15
2018-05-12T03:10:33.339Z,15
2018-05-12T03:11:43.086Z,15
2018-05-12T03:12:52.843Z,15
2018-05-12T03:14:02.862Z,15
2018-05-12T03:15:12.877Z,15
2018-05-12T03:16:22.623Z,15
2018-05-12T03:17:32.368Z,15
2018-05-12T03:18:42.371Z,15
2018-05-12T03:19:52.112Z,15
2018-05-12T03:21:02.151Z,15
2018-05-12T03:22:11.629Z,15
2018-05-12T03:23:21.366Z,15
2018-05-12T03:24:31.463Z,15
2018-05-12T03:25:41.467Z,20
2018-05-12T03:26:51.225Z,20
2018-05-12T03:28:00.966Z,20
2018-05-12T03:29:10.995Z,20
2018-05-12T03:30:21.012Z,20
2018-05-12T03:31:31.029Z,20
2018-05-12T03:32:40.779Z,20
2018-05-12T03:33:50.267Z,25
2018-05-12T03:34:59.479Z,25
2018-05-12T03:36:08.967Z,20
2018-05-12T03:37:19.065Z,25
2018-05-12T03:38:29.096Z,25
2018-05-12T03:39:38.839Z,30
2018-05-12T03:40:48.844Z,30
2018-05-12T03:41:58.322Z,30
2018-05-12T03:43:07.796Z,30
2018-05-12T03:44:17.539Z,30
2018-05-12T03:45:27.557Z,35
2018-05-12T03:46:37.571Z,35
2018-05-12T03:47:47.313Z,35
2018-05-12T03:48:57.322Z,40
2018-05-12T03:50:07.065Z,40
2018-05-12T03:51:16.811Z,45
2018-05-12T03:52:26.833Z,45
2018-05-12T03:53:36.580Z,45
2018-05-12T03:54:46.060Z,50
2018-05-12T03:55:56.069Z,50
2018-05-12T03:57:05.811Z,50
2018-05-12T03:58:15.550Z,50
2018-05-12T03:59:24.763Z,50
2018-05-12T04:00:34.780Z,50
2018-05-12T04:01:44.259Z,50
2018-05-12T04:02:53.997Z,55
2018-05-12T04:04:03.743Z,55
2018-05-12T04:05:13.218Z,55
2018-05-12T04:06:23.243Z,60
2018-05-12T04:07:32.996Z,60
2018-05-12T04:08:42.666Z,55
2018-05-12T04:09:52.416Z,55
2018-05-12T04:11:02.156Z,50
2018-05-12T04:12:11.641Z,45
2018-05-12T04:13:21.753Z,45
2018-05-12T04:14:31.232Z,45
2018-05-12T04:15:40.707Z,45
2018-05-12T04:16:50.455Z,45
2018-05-12T04:18:00.472Z,45
2018-05-12T04:19:10.485Z,45
2018-05-12T04:20:20.231Z,50
2018-05-12T04:21:30.236Z,50
2018-05-12T04:22:39.979Z,50
2018-05-12T04:23:49.993Z,50
2018-05-12T04:25:00.010Z,50
2018-05-12T04:26:10.031Z,50
2018-05-12T04:27:20.048Z,50
2018-05-12T04:28:30.063Z,55
2018-05-12T04:29:40.072Z,55
2018-05-12T04:30:49.815Z,60
2018-05-12T04:31:59.556Z,60
2018-05-12T04:33:09.564Z,65
2018-05-12T04:34:19.304Z,65
2018-05-12T04:35:29.330Z,70
2018-05-12T04:36:39.337Z,70
2018-05-12T04:37:49.344Z,75
2018-05-12T04:38:59.089Z,75
2018-05-12T04:40:08.570Z,70
2018-05-12T04:41:18.046Z,65
2018-05-12T04:42:28.064Z,60
2018-05-12T04:43:38.072Z,55
2018-05-12T04:44:48.089Z,55
2018-05-12T04:45:58.094Z,50
2018-05-12T04:47:07.838Z,55
2018-05-12T04:48:17.865Z,60
2018-05-12T04:49:27.608Z,65
2018-05-12T04:50:37.080Z,70
2018-05-12T04:51:46.294Z,70
2018-05-12T04:52:56.042Z,70
2018-05-12T04:54:06.145Z,75
2018-05-12T04:55:15.916Z,75
2018-05-12T04:56:25.388Z,75
2018-05-12T04:57:35.408Z,75
2018-05-12T04:58:45.427Z,75
2018-05-12T04:59:55.443Z,80
2018-05-12T05:01:05.190Z,75
2018-05-12T05:02:14.666Z,75
2018-05-12T05:03:24.419Z,80
2018-05-12T05:04:34.159Z,90
2018-05-12T05:05:44.176Z,95
2018-05-12T05:06:53.652Z,100
2018-05-12T05:08:03.391Z,100
2018-05-12T05:09:13.134Z,105
2018-05-12T05:10:23.144Z,105
2018-05-12T05:11:33.158Z,105
2018-05-12T05:12:43.170Z,105
2018-05-12T05:13:53.189Z,105
2018-05-12T05:15:03.201Z,105
2018-05-12T05:16:12.950Z,105
2018-05-12T05:17:22.960Z,105
2018-05-12T05:18:32.967Z,100
2018-05-12T05:19:42.708Z,95
2018-05-12T05:20:52.451Z,95
2018-05-12T05:22:02.477Z,100
2018-05-12T05:23:12.495Z,110
2018-05-12T05:24:21.705Z,115
2018-05-12T05:25:31.450Z,115
2018-05-12T05:26:41.465Z,115
2018-05-12T05:27:50.941Z,120
2018-05-12T05:29:00.957Z,120
2018-05-12T05:30:10.976Z,125
2018-05-12T05:31:20.986Z,120
2018-05-12T05:32:30.458Z,120
2018-05-12T05:33:40.211Z,120
2018-05-12T05:34:50.240Z,120
2018-05-12T05:36:00.257Z,120
2018-05-12T05:37:09.740Z,125
2018-05-12T05:38:19.482Z,125
2018-05-12T05:39:28.968Z,125
2018-05-12T05:40:38.711Z,125
2018-05-12T05:41:48.816Z,130
2018-05-12T05:42:58.824Z,130
2018-05-12T05:44:08.835Z,125
2018-05-12T05:45:18.579Z,125
2018-05-12T05:46:28.593Z,130
2018-05-12T05:47:38.343Z,130
2018-05-12T05:48:48.353Z,125
2018-05-12T05:49:58.105Z,125
2018-05-12T05:51:08.124Z,125
2018-05-12T05:52:17.332Z,130
2018-05-12T05:53:27.080Z,135
2018-05-12T05:54:37.095Z,135
2018-05-12T05:55:46.843Z,135
2018-05-12T05:56:56.595Z,135
2018-05-12T05:58:06.619Z,130
2018-05-12T05:59:16.094Z,130
2018-05-12T06:00:25.843Z,130
2018-05-12T06:01:35.852Z,125
2018-05-12T06:02:45.333Z,125
2018-05-12T06:03:55.077Z,125
2018-05-12T06:05:04.910Z,125
2018-05-12T06:06:14.387Z,125
2018-05-12T06:07:24.372Z,115
2018-05-12T06:08:34.389Z,115
2018-05-12T06:09:44.131Z,120
2018-05-12T06:10:54.149Z,125
2018-05-12T06:12:04.160Z,145
2018-05-12T06:13:13.908Z,160
2018-05-12T06:14:23.925Z,175
2018-05-12T06:15:33.404Z,175
2018-05-12T06:16:43.145Z,180
2018-05-12T06:17:52.886Z,185
2018-05-12T06:19:02.361Z,190
2018-05-12T06:20:12.386Z,200
2018-05-12T06:21:21.963Z,205
2018-05-12T06:22:31.983Z,215
2018-05-12T06:23:41.801Z,220
2018-05-12T06:24:51.818Z,225
2018-05-12T06:26:01.865Z,225
2018-05-12T06:27:11.610Z,220
2018-05-12T06:28:21.083Z,210
2018-05-12T06:29:31.104Z,205
2018-05-12T06:30:40.848Z,205
2018-05-12T06:31:50.862Z,210
2018-05-12T06:33:00.876Z,210
2018-05-12T06:34:10.618Z,205
2018-05-12T06:35:20.370Z,195
2018-05-12T06:36:30.380Z,185
2018-05-12T06:37:40.395Z,180
2018-05-12T06:38:50.407Z,175
2018-05-12T06:40:00.423Z,170
2018-05-12T06:41:10.168Z,165
2018-05-12T06:42:19.646Z,165
2018-05-12T06:43:29.667Z,170
2018-05-12T06:44:39.689Z,170
2018-05-12T06:45:49.721Z,175
2018-05-12T06:46:59.470Z,175
2018-05-12T06:48:09.482Z,180
2018-05-12T06:49:18.969Z,180
2018-05-12T06:50:28.973Z,180
2018-05-12T06:51:38.718Z,180
2018-05-12T06:52:49.026Z,175
2018-05-12T06:53:59.039Z,180
2018-05-12T06:55:08.785Z,180
2018-05-12T06:56:18.796Z,195
2018-05-12T06:57:28.538Z,195
2018-05-12T06:58:37.746Z,200
2018-05-12T06:59:47.484Z,205
2018-05-12T07:00:57.501Z,205
2018-05-12T07:02:07.522Z,200
2018-05-12T07:03:17.540Z,200
2018-05-12T07:04:27.552Z,200
2018-05-12T07:05:37.568Z,200
2018-05-12T07:06:47.580Z,210
2018-05-12T07:07:57.593Z,220
2018-05-12T07:09:07.608Z,230
2018-05-12T07:10:17.354Z,235
2018-05-12T07:11:27.369Z,245
2018-05-12T07:12:37.205Z,245
2018-05-12T07:13:46.951Z,245
2018-05-12T07:14:56.971Z,245
2018-05-12T07:16:06.717Z,240
2018-05-12T07:17:16.863Z,245
2018-05-12T07:18:26.601Z,250
2018-05-12T07:19:36.338Z,260
2018-05-12T07:20:46.082Z,270
2018-05-12T07:21:56.103Z,280
2018-05-12T07:23:05.847Z,285
2018-05-12T07:24:15.586Z,290
2018-05-12T07:25:25.598Z,290
2018-05-12T07:26:35.614Z,290
2018-05-12T07:27:45.355Z,295
2018-05-12T07:28:55.374Z,290
2018-05-12T07:30:05.120Z,280
2018-05-12T07:31:15.132Z,265
2018-05-12T07:32:25.142Z,250
2018-05-12T07:33:35.156Z,235
2018-05-12T07:34:45.173Z,225
2018-05-12T07:35:55.189Z,220
2018-05-12T07:37:05.297Z,210
2018-05-12T07:38:15.312Z,195
2018-05-12T07:39:25.322Z,185
2018-05-12T07:40:35.334Z,170
2018-05-12T07:41:45.088Z,170
2018-05-12T07:42:54.578Z,170
2018-05-12T07:44:04.322Z,185
2018-05-12T07:45:14.092Z,195
2018-05-12T07:46:23.837Z,210
2018-05-12T07:47:33.851Z,230
2018-05-12T07:48:43.329Z,235
2018-05-12T07:49:52.805Z,245
2018-05-12T07:51:02.547Z,250
2018-05-12T07:52:12.299Z,250
2018-05-12T07:53:22.310Z,245
2018-05-12T07:54:32.325Z,240
2018-05-12T07:55:42.342Z,240
2018-05-12T07:56:52.402Z,245
2018-05-12T07:58:02.152Z,250
2018-05-12T07:59:11.367Z,275
2018-05-12T08:00:21.187Z,295
2018-05-12T08:01:30.942Z,310
2018-05-12T08:02:40.686Z,320
2018-05-12T08:03:50.431Z,335
2018-05-12T08:05:00.174Z,360
2018-05-12T08:06:09.967Z,370
2018-05-12T08:07:19.710Z,395
2018-05-12T08:08:29.726Z,420
2018-05-12T08:09:39.739Z,420
2018-05-12T08:10:49.490Z,410
2018-05-12T08:11:59.555Z,405
2018-05-12T08:13:09.577Z,410
2018-05-12T08:14:19.591Z,430
2018-05-12T08:15:29.340Z,435
2018-05-12T08:16:39.439Z,430
2018-05-12T08:17:48.916Z,425
2018-05-12T08:18:58.926Z,405
2018-05-12T08:20:09.034Z,370
2018-05-12T08:21:19.050Z,350
2018-05-12T08:22:29.062Z,335
2018-05-12T08:23:39.073Z,325
2018-05-12T08:24:49.084Z,315
2018-05-12T08:25:59.181Z,315
2018-05-12T08:27:08.947Z,330
2018-05-12T08:28:18.956Z,350
2018-05-12T08:29:28.706Z,360
2018-05-12T08:30:38.445Z,365
2018-05-12T08:31:47.926Z,380
2018-05-12T08:32:57.949Z,415
2018-05-12T08:34:07.424Z,475
2018-05-12T08:35:17.444Z,535
2018-05-12T08:36:27.464Z,555
2018-05-12T08:37:37.213Z,550
2018-05-12T08:38:46.694Z,520
2018-05-12T08:39:56.723Z,455
2018-05-12T08:41:06.470Z,405
2018-05-12T08:42:16.222Z,370
2018-05-12T08:43:25.973Z,350
2018-05-12T08:44:35.726Z,335
2018-05-12T08:45:45.755Z,330
2018-05-12T08:46:55.866Z,335
2018-05-12T08:48:05.881Z,360
2018-05-12T08:49:15.633Z,375
2018-05-12T08:50:25.382Z,390
2018-05-12T08:51:35.430Z,385
2018-05-12T08:52:45.442Z,380
2018-05-12T08:53:55.469Z,395
2018-05-12T08:55:05.488Z,410
2018-05-12T08:56:15.236Z,425
2018-05-12T08:57:24.988Z,430
2018-05-12T08:58:35.011Z,415
2018-05-12T08:59:45.040Z,400
2018-05-12T09:00:55.063Z,400
2018-05-12T09:02:05.076Z,415
2018-05-12T09:03:15.089Z,410
2018-05-12T09:04:25.100Z,420
2018-05-12T09:05:34.577Z,460
2018-05-12T09:06:44.060Z,525
2018-05-12T09:07:54.079Z,550
2018-05-12T09:09:03.823Z,555
2018-05-12T09:10:13.307Z,575
2018-05-12T09:11:23.054Z,555
2018-05-12T09:12:32.532Z,515
2018-05-12T09:13:42.280Z,475
2018-05-12T09:14:52.035Z,445
2018-05-12T09:16:01.800Z,440
2018-05-12T09:17:11.282Z,475
2018-05-12T09:18:21.037Z,535
2018-05-12T09:19:30.743Z,605
2018-05-12T09:20:40.759Z,660
2018-05-12T09:21:50.516Z,685
2018-05-12T09:23:00.008Z,690
2018-05-12T09:24:10.022Z,645
2018-05-12T09:25:20.049Z,550
2018-05-12T09:26:30.069Z,520
2018-05-12T09:27:40.099Z,550
2018-05-12T09:28:49.580Z,605
2018-05-12T09:29:59.325Z,650
2018-05-12T09:31:09.348Z,675
2018-05-12T09:32:19.363Z,665
2018-05-12T09:33:29.398Z,645
2018-05-12T09:34:39.418Z,645
2018-05-12T09:35:49.431Z,610
2018-05-12T09:36:59.181Z,540
2018-05-12T09:38:08.925Z,505
2018-05-12T09:39:18.947Z,505
2018-05-12T09:40:28.959Z,520
2018-05-12T09:41:38.970Z,540
2018-05-12T09:42:48.181Z,555
2018-05-12T09:43:58.198Z,555
2018-05-12T09:45:08.307Z,575
2018-05-12T09:46:18.336Z,585
2018-05-12T09:47:28.093Z,570
2018-05-12T09:48:37.855Z,580
2018-05-12T09:49:47.621Z,610
2018-05-12T09:50:57.369Z,655
2018-05-12T09:52:06.582Z,680
2018-05-12T09:53:16.330Z,660
2018-05-12T09:54:26.083Z,645
2018-05-12T09:55:35.831Z,635
2018-05-12T09:56:45.852Z,620
2018-05-12T09:57:55.339Z,630
2018-05-12T09:59:04.834Z,630
2018-05-12T10:00:14.864Z,645
2018-05-12T10:01:24.344Z,700
2018-05-12T10:02:33.827Z,730
2018-05-12T10:03:43.582Z,730
2018-05-12T10:04:53.338Z,750
2018-05-12T10:06:02.815Z,775
2018-05-12T10:07:12.567Z,725
2018-05-12T10:08:22.413Z,620
2018-05-12T10:09:32.436Z,545
2018-05-12T10:10:42.185Z,520
2018-05-12T10:11:51.666Z,540
2018-05-12T10:13:01.997Z,565
2018-05-12T10:14:12.069Z,570
2018-05-12T10:15:21.891Z,560
2018-05-12T10:16:31.917Z,570
2018-05-12T10:17:41.400Z,585
2018-05-12T10:18:50.626Z,600
2018-05-12T10:20:00.178Z,600
2018-05-12T10:21:10.502Z,605
2018-05-12T10:22:20.583Z,625
2018-05-12T10:23:30.625Z,665
2018-05-12T10:24:40.643Z,670
2018-05-12T10:25:50.446Z,645
2018-05-12T10:27:00.193Z,630
2018-05-12T10:28:10.207Z,620
2018-05-12T10:29:19.954Z,645
2018-05-12T10:30:30.057Z,745
2018-05-12T10:31:40.077Z,830
2018-05-12T10:32:49.827Z,785
2018-05-12T10:33:59.578Z,680
2018-05-12T10:35:09.056Z,635
2018-05-12T10:36:18.814Z,665
2018-05-12T10:37:28.583Z,660
2018-05-12T10:38:38.599Z,685
2018-05-12T10:39:48.616Z,710
2018-05-12T10:40:58.097Z,730
2018-05-12T10:42:07.580Z,715
2018-05-12T10:43:17.602Z,700
2018-05-12T10:44:27.367Z,640
2018-05-12T10:45:36.909Z,625
2018-05-12T10:46:46.964Z,625
2018-05-12T10:47:56.987Z,645
2018-05-12T10:49:06.470Z,680
2018-05-12T10:50:16.489Z,725
2018-05-12T10:51:26.596Z,750
2018-05-12T10:52:36.610Z,760
2018-05-12T10:53:46.643Z,775
2018-05-12T10:54:56.662Z,795
2018-05-12T10:56:06.695Z,805
2018-05-12T10:57:16.715Z,845
2018-05-12T10:58:26.741Z,915
2018-05-12T10:59:36.763Z,890
2018-05-12T11:00:46.247Z,910
2018-05-12T11:01:56.394Z,870
2018-05-12T11:03:05.880Z,855
2018-05-12T11:04:15.388Z,845
2018-05-12T11:05:25.149Z,865
2018-05-12T11:06:35.171Z,920
2018-05-12T11:07:45.192Z,980
2018-05-12T11:08:54.946Z,1035
2018-05-12T11:10:04.964Z,1070
2018-05-12T11:11:14.464Z,1080
2018-05-12T11:12:24.221Z,1045
2018-05-12T11:13:34.250Z,920
2018-05-12T11:14:44.271Z,855
2018-05-12T11:15:54.829Z,865
2018-05-12T11:17:04.861Z,845
2018-05-12T11:18:14.948Z,810
2018-05-12T11:19:24.977Z,820
2018-05-12T11:20:34.998Z,860
2018-05-12T11:21:45.318Z,940
2018-05-12T11:22:54.995Z,890
2018-05-12T11:24:04.844Z,780
2018-05-12T11:25:14.598Z,740
2018-05-12T11:26:24.349Z,725
2018-05-12T11:27:34.101Z,735
2018-05-12T11:28:43.852Z,760
2018-05-12T11:29:53.070Z,790
2018-05-12T11:31:03.088Z,765
2018-05-12T11:32:12.790Z,765
2018-05-12T11:33:22.190Z,725
2018-05-12T11:34:31.941Z,695
2018-05-12T11:35:42.039Z,715
2018-05-12T11:36:51.517Z,755
2018-05-12T11:38:01.536Z,885
2018-05-12T11:39:11.292Z,890
2018-05-12T11:40:20.783Z,1120
2018-05-12T11:41:30.804Z,885
2018-05-12T11:42:40.843Z,805
2018-05-12T11:43:50.865Z,795
2018-05-12T11:45:00.345Z,810
2018-05-12T11:46:10.103Z,925
2018-05-12T11:47:19.593Z,860
2018-05-12T11:48:29.352Z,780
2018-05-12T11:49:39.385Z,770
2018-05-12T11:50:49.403Z,765
2018-05-12T11:51:59.426Z,780
2018-05-12T11:53:09.444Z,845
2018-05-12T11:54:19.386Z,840
2018-05-12T11:55:29.411Z,820
2018-05-12T11:56:39.170Z,965
2018-05-12T11:57:48.925Z,915
2018-05-12T11:58:58.679Z,1040
2018-05-12T12:00:08.431Z,1135
2018-05-12T12:01:18.182Z,1075
2018-05-12T12:02:28.114Z,1245
2018-05-12T12:03:37.943Z,1105
2018-05-12T12:04:47.436Z,1080
2018-05-12T12:05:57.452Z,960
2018-05-12T12:07:07.471Z,1025
2018-05-12T12:08:17.268Z,1185
2018-05-12T12:09:27.027Z,1150
2018-05-12T12:10:36.512Z,1045
2018-05-12T12:11:46.538Z,935
2018-05-12T12:12:56.562Z,1245
2018-05-12T12:14:06.046Z,1175
2018-05-12T12:15:15.535Z,1405
2018-05-12T12:16:25.074Z,1535
2018-05-12T12:17:34.822Z,1125
2018-05-12T12:18:44.844Z,1315
2018-05-12T12:19:54.867Z,1360
2018-05-12T12:21:04.895Z,1405
2018-05-12T12:22:14.393Z,1480
2018-05-12T12:23:24.148Z,1610
2018-05-12T12:24:33.633Z,1785
2018-05-12T12:25:43.389Z,1580
2018-05-12T12:26:52.897Z,1755
2018-05-12T12:28:02.660Z,2465
2018-05-12T12:29:12.686Z,1875
2018-05-12T12:30:22.712Z,1810
2018-05-12T12:31:32.735Z,1420
2018-05-12T12:32:42.496Z,895
2018-05-12T12:33:51.724Z,775
2018-05-12T12:35:01.747Z,850
2018-05-12T12:36:11.275Z,745
2018-05-12T12:37:20.505Z,725
2018-05-12T12:38:30.270Z,780
2018-05-12T12:39:40.290Z,1820
2018-05-12T12:40:50.318Z,890
2018-05-12T12:42:00.078Z,760
2018-05-12T12:43:09.564Z,725
2018-05-12T12:44:19.049Z,765
2018-05-12T12:45:28.805Z,795
2018-05-12T12:46:38.825Z,840
2018-05-12T12:47:48.862Z,850
2018-05-12T12:48:58.889Z,915
2018-05-12T12:50:08.389Z,1125
2018-05-12T12:51:18.405Z,1025
2018-05-12T12:52:28.166Z,1120
2018-05-12T12:53:37.921Z,1180
2018-05-12T12:54:47.675Z,1210
2018-05-12T12:55:57.432Z,1115
2018-05-12T12:57:07.456Z,1140
2018-05-12T12:58:16.955Z,1135
2018-05-12T12:59:27.070Z,940
2018-05-12T13:00:37.089Z,870
2018-05-12T13:01:47.119Z,900
2018-05-12T13:02:56.602Z,860
2018-05-12T13:04:06.364Z,880
2018-05-12T13:05:15.849Z,900
2018-05-12T13:06:25.873Z,975
2018-05-12T13:07:35.904Z,1005
2018-05-12T13:08:45.930Z,905
2018-05-12T13:09:55.951Z,865
2018-05-12T13:11:05.976Z,740
2018-05-12T13:12:15.199Z,635
2018-05-12T13:13:25.217Z,605
2018-05-12T13:14:35.038Z,635
2018-05-12T13:15:45.062Z,640
2018-05-12T13:16:55.098Z,670
2018-05-12T13:18:05.116Z,705
2018-05-12T13:19:14.884Z,930
2018-05-12T13:20:25.009Z,1450
2018-05-12T13:21:34.768Z,1105
2018-05-12T13:22:44.518Z,1025
2018-05-12T13:23:54.268Z,1225
2018-05-12T13:25:03.756Z,1920
2018-05-12T13:26:13.511Z,970
2018-05-12T13:27:23.532Z,960
2018-05-12T13:28:33.556Z,835
2018-05-12T13:29:43.580Z,745
2018-05-12T13:30:53.334Z,695
2018-05-12T13:32:03.098Z,660
2018-05-12T13:33:12.862Z,640
2018-05-12T13:34:22.622Z,630
2018-05-12T13:35:32.106Z,645
2018-05-12T13:36:42.124Z,1135
2018-05-12T13:37:52.139Z,755
2018-05-12T13:39:02.156Z,790
2018-05-12T13:40:11.638Z,845
2018-05-12T13:41:21.153Z,855
2018-05-12T13:42:31.174Z,855
2018-05-12T13:43:41.197Z,840
2018-05-12T13:44:51.021Z,830
2018-05-12T13:46:01.037Z,855
2018-05-12T13:47:10.791Z,780
2018-05-12T13:48:20.551Z,740
2018-05-12T13:49:30.576Z,715
2018-05-12T13:50:40.605Z,685
2018-05-12T13:51:49.825Z,670
2018-05-12T13:52:59.839Z,660
2018-05-12T13:54:09.595Z,660
2018-05-12T13:55:19.357Z,680
2018-05-12T13:56:29.384Z,710
2018-05-12T13:57:39.414Z,910
2018-05-12T13:58:49.436Z,730
2018-05-12T13:59:59.453Z,765
2018-05-12T14:01:09.320Z,1185
2018-05-12T14:02:18.546Z,825
2018-05-12T14:03:28.040Z,830
2018-05-12T14:04:38.056Z,755
2018-05-12T14:05:48.080Z,730
2018-05-12T14:06:57.827Z,740
2018-05-12T14:08:07.051Z,745
2018-05-12T14:09:17.068Z,735
2018-05-12T14:10:27.091Z,935
2018-05-12T14:11:36.573Z,760
2018-05-12T14:12:46.320Z,765
2018-05-12T14:13:56.078Z,3225
2018-05-12T14:15:06.106Z,1130
2018-05-12T14:16:16.571Z,2250
2018-05-12T14:17:26.590Z,1760
2018-05-12T14:18:36.339Z,1075
2018-05-12T14:19:46.096Z,1235
2018-05-12T14:20:56.118Z,1280
2018-05-12T14:22:05.881Z,1130
2018-05-12T14:23:15.906Z,1190
2018-05-12T14:24:25.709Z,1005
2018-05-12T14:25:35.731Z,995
2018-05-12T14:26:45.488Z,895
2018-05-12T14:27:55.507Z,835
2018-05-12T14:29:05.524Z,815
2018-05-12T14:30:15.019Z,840
2018-05-12T14:31:24.510Z,860
2018-05-12T14:32:34.568Z,890
2018-05-12T14:33:44.334Z,955
2018-05-12T14:34:54.361Z,1000
2018-05-12T14:36:04.402Z,1810
2018-05-12T14:37:14.428Z,1070
2018-05-12T14:38:23.913Z,1170
2018-05-12T14:39:33.932Z,1180
2018-05-12T14:40:43.954Z,1210
2018-05-12T14:41:53.978Z,1325
2018-05-12T14:43:03.466Z,1115
2018-05-12T14:44:13.523Z,1055
2018-05-12T14:45:23.545Z,1135
2018-05-12T14:46:33.571Z,1710
2018-05-12T14:47:43.055Z,845
2018-05-12T14:48:53.085Z,805
2018-05-12T14:50:02.841Z,795
2018-05-12T14:51:12.854Z,925
2018-05-12T14:52:22.617Z,860
2018-05-12T14:53:32.369Z,920
2018-05-12T14:54:42.129Z,995
2018-05-12T14:55:51.885Z,1190
2018-05-12T14:57:01.641Z,1350
2018-05-12T14:58:11.406Z,1080
2018-05-12T14:59:21.437Z,2120
2018-05-12T15:00:31.194Z,1590
2018-05-12T15:01:40.955Z,2720
2018-05-12T15:02:50.981Z,1230
2018-05-12T15:04:00.737Z,2655
2018-05-12T15:05:10.768Z,2405
2018-05-12T15:06:19.988Z,1930
2018-05-12T15:07:30.012Z,2170
2018-05-12T15:08:39.765Z,2525
2018-05-12T15:09:49.793Z,2065
2018-05-12T15:10:59.544Z,2070
2018-05-12T15:12:09.038Z,1470
2018-05-12T15:13:19.072Z,1475
2018-05-12T15:14:28.827Z,1540
2018-05-12T15:15:38.592Z,960
2018-05-12T15:16:48.618Z,1260
2018-05-12T15:17:58.375Z,1350
2018-05-12T15:19:08.403Z,2265
2018-05-12T15:20:18.446Z,2400
2018-05-12T15:21:28.914Z,2565
2018-05-12T15:22:38.948Z,2325
2018-05-12T15:23:48.711Z,2530
2018-05-12T15:24:58.745Z,2250
2018-05-12T15:26:08.777Z,2515
2018-05-12T15:27:18.817Z,2460
2018-05-12T15:28:28.596Z,2150
2018-05-12T15:29:38.715Z,2335
2018-05-12T15:30:48.741Z,2275
2018-05-12T15:31:58.499Z,2200
2018-05-12T15:33:08.003Z,1825
2018-05-12T15:34:18.031Z,1000
2018-05-12T15:35:28.062Z,805
2018-05-12T15:36:38.093Z,1000
2018-05-12T15:37:48.125Z,850
2018-05-12T15:38:57.885Z,1185
2018-05-12T15:40:07.665Z,1820
2018-05-12T15:41:17.432Z,995
2018-05-12T15:42:27.456Z,1630
2018-05-12T15:43:37.633Z,1850
2018-05-12T15:44:47.516Z,1830
2018-05-12T15:45:57.280Z,1600
2018-05-12T15:47:07.046Z,1215
2018-05-12T15:48:16.808Z,1400
2018-05-12T15:49:26.301Z,1160
2018-05-12T15:50:36.070Z,1055
2018-05-12T15:51:45.834Z,895
2018-05-12T15:52:55.856Z,750
2018-05-12T15:54:05.347Z,860
2018-05-12T15:55:15.376Z,780
2018-05-12T15:56:25.401Z,745
2018-05-12T15:57:35.208Z,755
2018-05-12T15:58:44.698Z,695
2018-05-12T15:59:54.454Z,670
2018-05-12T16:01:04.214Z,660
2018-05-12T16:02:13.705Z,665
2018-05-12T16:03:23.518Z,670
2018-05-12T16:04:33.274Z,740
2018-05-12T16:05:42.765Z,750
2018-05-12T16:06:52.784Z,665
2018-05-12T16:08:02.824Z,635
2018-05-12T16:09:12.577Z,645
2018-05-12T16:10:22.603Z,660
2018-05-12T16:11:32.358Z,665
2018-05-12T16:12:41.846Z,700
2018-05-12T16:13:51.877Z,730
2018-05-12T16:15:01.903Z,740
2018-05-12T16:16:11.658Z,775